Concho, Oklahoma
Current Conditions -  °F | °C
As of 10:55 PM on Saturday 25 Oct 2014 (Local Time) from KRCE Reporting Station
Clear Clear  
Wind Chill: 68°   Ceiling: Unl
Heat Index: 68°   Visibility: NA
Dew Point: 57°   Wind: 9mph
Humidity: 68%   Direction: 190°S
Pressure: 30.02"   Gusts: NA
Location:  35.62°N, 97.99°W
Report Text: KRCE 260355Z AUTO 19008KT CLR 20/14 A3002 RMK AO2
Loading
Personal Weather Stations






























Interactive Weather Map
Tropical Storm Tracking
New forecast layout! Learn more

10-Day Weather Forecast

Advertisements
Track Severe Weather on mobile